Flight Track Log - Related Links

Times and Time Zones

All times are in EDT time to prevent confusion due to time zone crossing. See the EJA312 flight status page for this flight to view local times or setup timezone preferences in your user account.

Time Position Orientation Groundspeed Altitude Reporting Facility
EDT Latitude Longitude Course Direction KTS MPH feet Rate Location/Type
Tue 11:13:33 AM 29.6356 -95.2675 21° North 154 177 800  Level Houston Center
Tue 11:14:58 AM 29.6961 -95.2408 21° North 258 297 4,500 2,609 Climbing Houston Center
Tue 11:15:05 AM 29.7028 -95.2419 352° North 247 284 4,800 3,184 Climbing Houston Center
Tue 11:15:47 AM 29.7600 -95.2500 353° North 283 326 7,100 2,903 Climbing Houston Center
Tue 11:17:09 AM 29.8619 -95.2647 353° North 292 336 10,800 2,542 Climbing Houston Center
Tue 11:18:11 AM 29.9469 -95.2753 354° North 304 350 13,200 2,177 Climbing Houston Center
Tue 11:19:13 AM 30.0328 -95.3119 340° North 335 386 15,300 2,390 Climbing Houston Center
Tue 11:20:14 AM 30.1100 -95.3642 330° Northwest 326 375 18,100 2,927 Climbing Houston Center
Tue 11:21:16 AM 30.1964 -95.4217 330° Northwest 301 346 21,300 2,274 Climbing Houston Center
Tue 11:22:18 AM 30.2686 -95.4711 329° Northwest 300 345 22,800 1,258 Climbing Houston Center
Tue 11:23:20 AM 30.3453 -95.5225 330° Northwest 316 364 23,900 1,016 Climbing Houston Center
Tue 11:24:22 AM 30.4289 -95.5786 330° Northwest 342 394 24,900 968 Climbing Houston Center
Tue 11:25:24 AM 30.5153 -95.6375 330° Northwest 358 412 25,900 968 Climbing Houston Center
Tue 11:26:26 AM 30.6094 -95.6906 334° Northwest 374 430 26,900 1,065 Climbing Houston Center
Tue 11:27:28 AM 30.7244 -95.7522 335° Northwest 382 440 28,100 1,065 Climbing Houston Center
Tue 11:28:30 AM 30.8222 -95.8056 335° Northwest 384 442 29,100 968 Climbing Houston Center
Tue 11:29:32 AM 30.9228 -95.8586 336° Northwest 389 448 30,100 968 Climbing Houston Center
Tue 11:30:34 AM 31.0231 -95.9125 335° Northwest 393 452 31,100 968 Climbing Houston Center
Tue 11:31:36 AM 31.1261 -95.9675 335° Northwest 400 460 32,100 960 Climbing Houston Center
Tue 11:32:39 AM 31.2342 -96.0094 342° North 405 466 33,100 1,056 Climbing Houston Center
Tue 11:33:41 AM 31.3658 -96.0608 342° North 412 474 34,300 1,016 Climbing Houston Center
Tue 11:34:43 AM 31.4658 -96.0983 342° North 407 468 35,200 919 Climbing Houston Center
Tue 11:35:45 AM 31.5744 -96.1408 342° North 407 468 36,200 968 Climbing Houston Center
Tue 11:36:47 AM 31.6814 -96.1822 342° North 403 464 37,200 1,065 Climbing Houston Center
Tue 11:37:49 AM 31.8061 -96.2322 341° North 402 463 38,400 1,024 Climbing Houston Center
Tue 11:38:50 AM 31.8992 -96.2731 340° North 400 460 39,300 793 Climbing Fort Worth Center
Tue 11:39:50 AM 32.0039 -96.3133 342° North 395 455 40,000 350 Climbing Fort Worth Center
Tue 11:40:50 AM 32.1108 -96.3564 341° North 395 455 40,000  Level Fort Worth Center
Tue 11:41:50 AM 32.2136 -96.4117 336° Northwest 395 455 40,000  Level Fort Worth Center
Tue 11:42:50 AM 32.2936 -96.5042 316° Northwest 395 455 40,000  Level Fort Worth Center
Tue 11:43:50 AM 32.3756 -96.5967 316° Northwest 400 460 40,000  Level Fort Worth Center
Tue 11:44:50 AM 32.4575 -96.6869 317° Northwest 400 460 40,000  Level Fort Worth Center
Tue 11:45:50 AM 32.5353 -96.7753 316° Northwest 395 455 40,000  Level Fort Worth Center
Tue 11:46:50 AM 32.6131 -96.8658 316° Northwest 390 449 40,000  Level Fort Worth Center
Tue 11:47:50 AM 32.6906 -96.9542 316° Northwest 384 442 40,000  Level Fort Worth Center
Tue 11:48:50 AM 32.7764 -97.0503 317° Northwest 386 444 40,000  Level Fort Worth Center
Tue 11:49:50 AM 32.8561 -97.1389 317° Northwest 386 444 40,000  Level Fort Worth Center
Tue 11:50:50 AM 32.9314 -97.2303 314° West 386 444 40,000  Level Fort Worth Center
Tue 11:51:50 AM 33.0044 -97.3217 314° West 386 444 40,000  Level Fort Worth Center
Tue 11:52:50 AM 33.0839 -97.4258 312° West 397 457 40,000  Level Fort Worth Center
Tue 11:53:50 AM 33.1547 -97.5153 313° West 392 451 40,000  Level Fort Worth Center
Tue 11:54:50 AM 33.2256 -97.6072 313° West 386 444 40,000  Level Fort Worth Center
Tue 11:55:50 AM 33.3006 -97.6992 314° West 381 438 40,000  Level Fort Worth Center
Tue 11:56:50 AM 33.3714 -97.7889 313° West 376 433 40,000  Level Fort Worth Center
Tue 11:57:50 AM 33.4400 -97.8814 312° West 376 433 40,000  Level Fort Worth Center
Tue 11:58:50 AM 33.5125 -97.9714 314° West 376 433 40,000  Level Fort Worth Center
Tue 11:59:50 AM 33.5831 -98.0667 312° West 371 427 40,000  Level Fort Worth Center
Tue 12:00:50 PM 33.6536 -98.1572 313° West 371 427 40,000  Level Fort Worth Center
Tue 12:01:50 PM 33.7261 -98.2475 314° West 371 427 40,000  Level Fort Worth Center
Tue 12:02:50 PM 33.7964 -98.3408 312° West 371 427 40,000  Level Fort Worth Center
Tue 12:03:50 PM 33.8667 -98.4317 313° West 371 427 40,000  Level Fort Worth Center
Tue 12:04:50 PM 33.9367 -98.5275 311° West 371 427 40,000  Level Fort Worth Center
Tue 12:05:50 PM 34.0172 -98.6161 318° Northwest 371 427 40,000  Level Fort Worth Center
Tue 12:06:50 PM 34.0978 -98.7003 319° Northwest 384 442 40,000  Level Fort Worth Center
Tue 12:07:50 PM 34.1867 -98.7817 323° Northwest 389 448 40,000  Level Fort Worth Center
Tue 12:08:50 PM 34.2733 -98.8611 323° Northwest 395 455 40,000  Level Fort Worth Center
Tue 12:09:50 PM 34.3600 -98.9381 324° Northwest 388 447 40,000  Level Fort Worth Center
Tue 12:10:50 PM 34.4489 -99.0203 323° Northwest 388 447 40,000  Level Fort Worth Center
Tue 12:11:50 PM 34.5333 -99.0975 323° Northwest 388 447 40,000  Level Fort Worth Center
Tue 12:12:50 PM 34.6200 -99.1722 325° Northwest 382 440 40,000  Level Fort Worth Center
Tue 12:13:50 PM 34.7044 -99.2497 323° Northwest 382 440 40,000  Level Fort Worth Center
Tue 12:14:50 PM 34.7867 -99.3275 322° Northwest 382 440 40,000  Level Fort Worth Center
Tue 12:15:50 PM 34.8708 -99.4078 322° Northwest 382 440 40,000  Level Fort Worth Center
Tue 12:16:50 PM 34.9592 -99.4883 323° Northwest 387 445 40,000  Level Fort Worth Center
Tue 12:17:50 PM 35.0394 -99.5639 322° Northwest 387 445 40,000  Level Fort Worth Center
Tue 12:19:21 PM 35.1569 -99.6736 323° Northwest 380 437 40,000  Level Albuquerque Center
Tue 12:20:23 PM 35.2417 -99.7542 322° Northwest 382 440 40,000  Level Albuquerque Center
Tue 12:21:25 PM 35.3261 -99.8333 323° Northwest 380 437 40,000  Level Albuquerque Center
Tue 12:22:27 PM 35.4275 -99.9297 322° Northwest 381 438 40,000  Level Albuquerque Center
Tue 12:23:28 PM 35.5114 -100.0094 322° Northwest 379 436 40,000  Level Albuquerque Center
Tue 12:24:30 PM 35.5950 -100.0892 322° Northwest 379 436 40,000  Level Albuquerque Center
Tue 12:25:32 PM 35.6778 -100.1678 322° Northwest 375 432 40,000  Level Albuquerque Center
Tue 12:26:34 PM 35.7603 -100.2467 322° Northwest 372 428 40,000  Level Albuquerque Center
Tue 12:27:36 PM 35.8431 -100.3267 322° Northwest 374 430 40,000  Level Albuquerque Center
Tue 12:28:38 PM 35.9247 -100.4056 322° Northwest 371 427 40,000  Level Albuquerque Center
Tue 12:29:39 PM 36.0067 -100.4842 322° Northwest 371 427 40,000  Level Albuquerque Center
Tue 12:30:41 PM 36.0886 -100.5636 322° Northwest 371 427 40,000  Level Albuquerque Center
Tue 12:31:43 PM 36.1872 -100.6589 322° Northwest 372 428 40,000  Level Albuquerque Center
Tue 12:32:45 PM 36.2697 -100.7394 322° Northwest 373 429 40,000  Level Albuquerque Center
Tue 12:33:47 PM 36.3519 -100.8208 321° Northwest 376 433 40,000  Level Albuquerque Center
Tue 12:34:49 PM 36.4364 -100.9036 322° Northwest 377 434 40,000  Level Albuquerque Center
Tue 12:35:50 PM 36.5156 -100.9806 322° Northwest 377 434 40,000  Level Albuquerque Center
Tue 12:36:52 PM 36.6078 -101.0722 321° Northwest 378 435 40,000  Level Albuquerque Center
Tue 12:38:00 PM 36.6997 -101.1656 321° Northwest 379 436 40,000  Level Kansas City Center
Tue 12:39:02 PM 36.7786 -101.2425 322° Northwest 377 434 40,000  Level Kansas City Center
Tue 12:40:04 PM 36.8714 -101.3350 321° Northwest 380 437 40,000  Level Kansas City Center
Tue 12:41:06 PM 36.9506 -101.4144 321° Northwest 380 437 40,000  Level Kansas City Center
Tue 12:42:07 PM 37.0428 -101.5075 321° Northwest 380 437 40,000  Level Kansas City Center
Tue 12:43:09 PM 37.1231 -101.5867 322° Northwest 382 440 40,000  Level Kansas City Center
Tue 12:44:11 PM 37.2028 -101.6675 321° Northwest 383 441 40,000  Level Kansas City Center
Tue 12:45:13 PM 37.2958 -101.7608 321° Northwest 382 440 40,000  Level Kansas City Center
Tue 12:46:15 PM 37.3750 -101.8414 321° Northwest 382 440 40,000  Level Kansas City Center
Tue 12:47:16 PM 37.4678 -101.9356 321° Northwest 382 440 40,000  Level Kansas City Center
Tue 12:48:18 PM 37.5472 -102.0169 321° Northwest 383 441 40,000  Level Kansas City Center
Tue 12:49:20 PM 37.6378 -102.1142 320° Northwest 382 440 40,000  Level Kansas City Center
Tue 12:50:04 PM 37.6786 -102.1783 309° West 372 428 40,000 -283 Level Denver Center
Tue 12:51:06 PM 37.7547 -102.2878 311° West 371 427 39,500 -919 Descending Denver Center
Tue 12:52:08 PM 37.8203 -102.3842 311° West 376 433 38,100 -1,306 Descending Denver Center
Tue 12:53:10 PM 37.8922 -102.4878 311° West 380 437 36,800 -1,452 Descending Denver Center
Tue 12:54:12 PM 37.9714 -102.6047 311° West 389 448 35,100 -1,355 Descending Denver Center
Tue 12:55:14 PM 38.0364 -102.6986 311° West 394 453 34,000 -532 Descending Denver Center
Tue 12:56:16 PM 38.1169 -102.8167 311° West 396 456 34,000  Level Denver Center
Tue 12:57:18 PM 38.1872 -102.9208 311° West 403 464 34,000  Level Denver Center
Tue 12:58:20 PM 38.2683 -103.0422 310° West 404 465 34,000  Level Denver Center
Tue 12:59:22 PM 38.3386 -103.1461 311° West 405 466 34,000 -145 Level Denver Center
Tue 01:00:24 PM 38.4194 -103.2678 310° West 403 464 33,700 -1,306 Descending Denver Center
Tue 01:01:26 PM 38.4922 -103.3761 311° West 401 461 31,300 -2,419 Descending Denver Center
Tue 01:02:28 PM 38.5611 -103.4786 311° West 398 458 28,700 -2,710 Descending Denver Center
Tue 01:03:30 PM 38.6414 -103.6006 310° West 401 461 25,700 -2,710 Descending Denver Center
Tue 01:04:32 PM 38.7094 -103.7044 310° West 399 459 23,100 -2,613 Descending Denver Center
Tue 01:05:34 PM 38.7842 -103.8156 311° West 368 423 20,300 -1,968 Descending Denver Center
Tue 01:06:37 PM 38.8419 -103.9086 309° West 354 407 19,000 -1,248 Descending Denver Center
Tue 01:07:39 PM 38.9208 -103.9908 321° Northwest 347 399 17,700 -1,210 Descending Denver Center
Tue 01:08:41 PM 38.9972 -104.0628 324° Northwest 344 396 16,500 -774 Descending Denver Center
Tue 01:09:43 PM 39.0411 -104.1736 297° West 320 368 16,100 -290 Descending Denver Center
Tue 01:10:45 PM 39.0642 -104.2742 286° West 309 356 15,900 -968 Descending Denver Center
Tue 01:11:47 PM 39.1083 -104.3744 300° West 299 344 14,100 -1,403 Descending Denver Center
Tue 01:12:49 PM 39.1594 -104.4767 303° West 346 398 13,000 -774 Descending Denver Center
Tue 01:13:51 PM 39.2139 -104.5842 303° West 339 390 12,500 -968 Descending Denver Center
Tue 01:14:53 PM 39.2681 -104.6881 304° West 349 402 11,000 -1,645 Descending Denver Center
Tue 01:15:55 PM 39.3386 -104.7703 318° Northwest 313 360 9,100 -1,161 Descending Denver Center
Tue 01:16:57 PM 39.3939 -104.8069 333° Northwest 220 253 8,600 -484 Descending Denver Center
Tue 01:17:59 PM 39.4442 -104.8367 335° Northwest 186 214 8,100 -435 Descending Denver Center
Tue 01:19:01 PM 39.4939 -104.8489 349° North 185 213 7,700 -871 Descending Denver Center
Tue 01:20:03 PM 39.5397 -104.8492 360° North 154 177 6,300 -871 Descending Denver Center
Tue 01:21:05 PM 39.5708 -104.8500 359° North 125 144 5,900 -387 Descending Denver Center
Tue 01:23:00 PM 39.5701 -104.8493 127° Southeast  Level Estimated
Tue 01:30:00 PM 39.5701 -104.8493 127° Southeast  Level Estimated

Login

Don't have an account? Register now (free) for customized features, flight alerts, and more!